Time;durP1;ratioP1;P1;durP2;ratioP2;P2;SDS_P1;SDS_P2;PMS_P1;PMS_P2;Temp;Humidity;BMP_temperature;BMP_pressure;BME280_temperature;BME280_humidity;BME280_pressure;Samples;Min_cycle;Max_cycle;Signal;HPM_P1;HPM_P2
2022/10/26 00:01:09;;;;;;;8.80;3.63;;;8.70;99.90;;;;;;5011431;28;20029;-68
2022/10/26 00:03:35;;;;;;;4.93;3.53;;;8.70;99.90;;;;;;5010998;28;20442;-56
2022/10/26 00:06:17;;;;;;;8.23;3.25;;;8.70;99.90;;;;;;5010252;28;20079;-58
2022/10/26 00:08:43;;;;;;;6.78;3.83;;;8.70;99.90;;;;;;5013380;28;20037;-59
2022/10/26 00:11:10;;;;;;;8.45;4.38;;;8.70;99.90;;;;;;5015239;28;20069;-58
2022/10/26 00:13:37;;;;;;;7.35;3.67;;;8.70;99.90;;;;;;5014461;28;20113;-56
2022/10/26 00:16:18;;;;;;;9.82;4.40;;;8.70;99.90;;;;;;5014666;28;20025;-59
2022/10/26 00:18:44;;;;;;;12.50;4.20;;;8.70;99.90;;;;;;5014333;28;20080;-54
2022/10/26 00:21:10;;;;;;;8.60;4.20;;;8.80;99.90;;;;;;5013616;28;20471;-56
2022/10/26 00:23:36;;;;;;;10.45;4.65;;;8.80;99.90;;;;;;5013558;28;20506;-57
2022/10/26 00:26:02;;;;;;;6.55;3.80;;;8.80;99.90;;;;;;5013260;28;20057;-57
2022/10/26 00:28:28;;;;;;;9.15;4.47;;;8.90;99.90;;;;;;5013690;28;20041;-56
2022/10/26 00:30:54;;;;;;;7.53;4.03;;;8.90;99.90;;;;;;5014286;28;20024;-58
2022/10/26 00:33:19;;;;;;;8.68;4.65;;;9.00;99.90;;;;;;5013564;28;20482;-58
2022/10/26 00:35:52;;;;;;;8.90;4.55;;;9.00;99.90;;;;;;5013854;28;20022;-59
2022/10/26 00:38:18;;;;;;;9.07;4.75;;;9.00;99.90;;;;;;5013611;28;20041;-59
2022/10/26 00:40:44;;;;;;;6.72;3.72;;;9.00;99.90;;;;;;5013238;28;20026;-57
2022/10/26 00:43:34;;;;;;;6.65;3.80;;;9.00;99.90;;;;;;5013637;28;20022;-59
2022/10/26 00:46:01;;;;;;;6.07;3.72;;;9.00;99.90;;;;;;5013332;28;20505;-58
2022/10/26 00:48:37;;;;;;;6.40;3.42;;;8.90;99.90;;;;;;5017323;28;20052;-58
2022/10/26 00:51:09;;;;;;;6.70;3.63;;;8.90;99.90;;;;;;5032796;28;20034;-61
2022/10/26 00:53:35;;;;;;;6.40;3.25;;;8.90;99.90;;;;;;5032208;28;20044;-58
2022/10/26 00:56:01;;;;;;;5.55;3.50;;;8.90;99.90;;;;;;5032027;28;20482;-59
2022/10/26 00:58:28;;;;;;;13.25;3.47;;;8.90;99.90;;;;;;5032197;28;20034;-57
2022/10/26 01:00:54;;;;;;;6.15;3.53;;;8.90;99.90;;;;;;5032672;28;20032;-55
2022/10/26 01:03:23;;;;;;;6.22;3.25;;;8.90;99.90;;;;;;5031874;28;20025;-56
2022/10/26 01:05:55;;;;;;;9.93;4.20;;;8.90;99.90;;;;;;5033103;28;20029;-54
2022/10/26 01:08:21;;;;;;;6.72;3.80;;;8.90;99.90;;;;;;5031511;28;20068;-58
2022/10/26 01:10:47;;;;;;;9.20;3.88;;;8.90;99.90;;;;;;5032606;28;20413;-59
2022/10/26 01:13:15;;;;;;;5.82;3.50;;;8.90;99.90;;;;;;5032475;28;20029;-60
2022/10/26 01:15:55;;;;;;;8.80;3.63;;;8.90;99.90;;;;;;5032184;28;20021;-58
2022/10/26 01:18:53;;;;;;;5.93;3.60;;;8.90;99.90;;;;;;5031691;28;20033;-59
2022/10/26 01:21:24;;;;;;;9.70;3.58;;;8.90;99.90;;;;;;5032091;28;20108;-57
2022/10/26 01:24:04;;;;;;;;;;;8.80;99.90;;;;;;5032223;28;20387;-59
2022/10/26 01:26:47;;;;;;;6.63;3.05;;;8.80;99.90;;;;;;5032296;28;19916;-56
2022/10/26 01:29:50;;;;;;;5.80;3.30;;;8.80;99.90;;;;;;5031329;28;20029;-57
2022/10/26 01:32:38;;;;;;;4.63;2.85;;;8.80;99.90;;;;;;5031982;28;20049;-55
2022/10/26 01:35:15;;;;;;;5.32;3.22;;;8.80;99.90;;;;;;5032181;28;20030;-56
2022/10/26 01:37:50;;;;;;;6.18;3.60;;;8.80;99.90;;;;;;5031453;28;20049;-55
2022/10/26 01:40:18;;;;;;;8.65;3.83;;;8.80;99.90;;;;;;5031815;28;20032;-54
2022/10/26 01:42:49;;;;;;;9.05;3.53;;;8.90;99.90;;;;;;5030588;28;20032;-56
2022/10/26 01:45:16;;;;;;;6.93;3.80;;;8.90;99.90;;;;;;5030675;28;20045;-56
2022/10/26 01:47:43;;;;;;;7.20;3.10;;;8.90;99.90;;;;;;5031974;28;20029;-56
2022/10/26 01:50:10;;;;;;;7.45;3.70;;;9.00;99.90;;;;;;5033086;28;20442;-58
2022/10/26 01:52:35;;;;;;;7.25;3.92;;;9.10;99.90;;;;;;5032297;28;20121;-58
2022/10/26 01:55:23;;;;;;;6.78;4.10;;;9.10;99.90;;;;;;5032205;28;20101;-56
2022/10/26 01:57:50;;;;;;;8.63;3.67;;;9.20;99.90;;;;;;5031478;28;20029;-53
2022/10/26 02:00:16;;;;;;;5.95;3.70;;;9.20;99.90;;;;;;5031695;28;20021;-52
2022/10/26 02:03:07;;;;;;;7.82;3.30;;;9.20;99.90;;;;;;5031691;28;20105;-56
2022/10/26 02:05:39;;;;;;;;;;;9.30;99.90;;;;;;5031444;28;20474;-57
2022/10/26 02:08:13;;;;;;;5.68;3.17;;;9.30;99.90;;;;;;5031643;28;19996;-56
2022/10/26 02:10:57;;;;;;;5.55;3.00;;;9.30;99.90;;;;;;5031539;28;20033;-57
2022/10/26 02:13:40;;;;;;;6.05;3.58;;;9.20;99.90;;;;;;5030552;28;20402;-55
2022/10/26 02:16:29;;;;;;;6.82;3.80;;;9.20;99.90;;;;;;5031486;28;20320;-58
2022/10/26 02:19:04;;;;;;;7.03;3.50;;;9.20;99.90;;;;;;5029618;28;20135;-57
2022/10/26 02:21:42;;;;;;;7.10;3.88;;;9.20;99.90;;;;;;5030856;28;20028;-54
2022/10/26 02:24:11;;;;;;;7.38;4.20;;;9.20;99.90;;;;;;5030910;28;20033;-57
2022/10/26 02:26:39;;;;;;;8.68;4.97;;;9.20;99.90;;;;;;5029989;28;20037;-57
2022/10/26 02:29:09;;;;;;;11.48;5.88;;;9.20;99.90;;;;;;5030590;28;20048;-58
2022/10/26 02:31:36;;;;;;;14.30;8.80;;;9.20;99.90;;;;;;5030601;28;20056;-58
2022/10/26 02:34:05;;;;;;;16.73;9.55;;;9.30;99.90;;;;;;5030447;28;20409;-56
2022/10/26 02:36:34;;;;;;;15.25;8.35;;;9.40;99.90;;;;;;5030909;28;20112;-58
2022/10/26 02:39:04;;;;;;;12.23;6.60;;;9.50;99.90;;;;;;5030839;28;20553;-55
2022/10/26 02:41:32;;;;;;;9.88;5.82;;;9.60;99.90;;;;;;5030496;28;20100;-56
2022/10/26 02:44:20;;;;;;;13.20;6.13;;;9.70;99.90;;;;;;5031122;28;20136;-58
2022/10/26 02:46:46;;;;;;;8.60;5.57;;;9.80;99.90;;;;;;5030318;28;20049;-56
2022/10/26 02:49:12;;;;;;;9.15;5.25;;;9.90;99.90;;;;;;5029401;28;20087;-57
2022/10/26 02:51:58;;;;;;;10.45;5.75;;;9.90;99.90;;;;;;5030451;28;20550;-58
2022/10/26 02:54:52;;;;;;;10.32;4.97;;;10.00;99.90;;;;;;5029505;28;20029;-53
2022/10/26 02:57:28;;;;;;;11.15;5.25;;;10.00;99.90;;;;;;5028821;28;20473;-56
2022/10/26 02:59:55;;;;;;;7.20;4.03;;;10.10;99.90;;;;;;5028844;28;20143;-59
2022/10/26 03:02:22;;;;;;;8.70;5.28;;;10.10;99.90;;;;;;5029022;28;20035;-59
2022/10/26 03:04:49;;;;;;;15.13;5.57;;;10.10;99.90;;;;;;5030409;28;20036;-59
2022/10/26 03:07:22;;;;;;;9.10;4.93;;;10.20;99.90;;;;;;5029113;28;20490;-59
2022/10/26 03:09:48;;;;;;;10.65;4.97;;;10.20;99.90;;;;;;5029034;28;20017;-57
2022/10/26 03:12:13;;;;;;;11.80;6.00;;;10.20;99.90;;;;;;5028798;28;20133;-57
2022/10/26 03:14:40;;;;;;;12.32;6.20;;;10.30;99.90;;;;;;5028551;28;20021;-59
2022/10/26 03:17:06;;;;;;;7.72;5.30;;;10.30;99.90;;;;;;5030506;28;20026;-59
2022/10/26 03:19:31;;;;;;;9.20;5.35;;;10.30;99.90;;;;;;5029917;28;20040;-62
2022/10/26 03:21:57;;;;;;;10.05;5.68;;;10.30;99.90;;;;;;5029833;28;20030;-59
2022/10/26 03:24:22;;;;;;;10.95;5.30;;;10.30;99.90;;;;;;5029903;28;20083;-55
2022/10/26 03:26:48;;;;;;;10.98;5.18;;;10.40;99.90;;;;;;5030538;28;20153;-57
2022/10/26 03:29:14;;;;;;;12.77;5.97;;;10.40;99.90;;;;;;5029153;28;20366;-59
2022/10/26 03:31:39;;;;;;;7.10;4.38;;;10.40;99.90;;;;;;5030587;28;20018;-55
2022/10/26 03:34:05;;;;;;;9.15;5.03;;;10.40;99.90;;;;;;5027915;28;20026;-57
2022/10/26 03:36:31;;;;;;;8.43;4.35;;;10.40;99.90;;;;;;5029735;28;20135;-55
2022/10/26 03:38:57;;;;;;;8.68;4.90;;;10.40;99.90;;;;;;5030001;28;20063;-55
2022/10/26 03:41:22;;;;;;;10.07;5.03;;;10.40;99.90;;;;;;5029018;28;20099;-56
2022/10/26 03:43:48;;;;;;;8.73;4.68;;;10.50;99.90;;;;;;5033145;28;20501;-58
2022/10/26 03:46:14;;;;;;;9.02;4.80;;;10.50;99.90;;;;;;5033754;28;20017;-55
2022/10/26 03:48:39;;;;;;;7.65;4.20;;;10.50;99.90;;;;;;5033675;28;20033;-59
2022/10/26 03:51:05;;;;;;;7.97;4.30;;;10.50;99.90;;;;;;5033865;28;20484;-65
2022/10/26 03:53:31;;;;;;;6.15;3.88;;;10.50;99.90;;;;;;5033614;28;20465;-60
2022/10/26 03:55:56;;;;;;;7.35;4.18;;;10.60;99.90;;;;;;5033411;28;20048;-58
2022/10/26 03:58:23;;;;;;;8.40;4.35;;;10.60;99.90;;;;;;5038704;28;20116;-64
2022/10/26 04:00:49;;;;;;;8.70;4.82;;;10.60;99.90;;;;;;5034951;28;20026;-64
2022/10/26 04:03:14;;;;;;;10.18;4.90;;;10.60;99.90;;;;;;5032894;28;20013;-62
2022/10/26 04:05:40;;;;;;;8.18;4.95;;;10.60;99.90;;;;;;5032754;28;20087;-66
2022/10/26 04:08:05;;;;;;;9.10;4.43;;;10.60;99.90;;;;;;5032994;28;20159;-63
2022/10/26 04:10:31;;;;;;;9.65;5.15;;;10.60;99.90;;;;;;5032713;28;20057;-68
2022/10/26 04:12:59;;;;;;;8.00;4.53;;;10.60;99.90;;;;;;5033200;28;20535;-68
2022/10/26 04:15:24;;;;;;;7.75;3.97;;;10.60;99.90;;;;;;5033198;28;20032;-67
2022/10/26 04:18:01;;;;;;;9.13;4.60;;;10.60;99.90;;;;;;5033417;28;20022;-68
2022/10/26 04:20:28;;;;;;;9.55;4.65;;;10.60;99.90;;;;;;5033163;28;20029;-67
2022/10/26 04:23:05;;;;;;;11.80;5.50;;;10.70;99.90;;;;;;5033718;28;20009;-62
2022/10/26 04:25:32;;;;;;;10.25;5.15;;;10.70;99.90;;;;;;5012561;28;20092;-61
2022/10/26 04:27:58;;;;;;;10.23;4.47;;;10.80;99.90;;;;;;5013294;28;20041;-57
2022/10/26 04:30:24;;;;;;;10.95;4.78;;;10.80;99.90;;;;;;5012735;28;20110;-57
2022/10/26 04:32:50;;;;;;;7.32;4.32;;;10.80;99.90;;;;;;5013764;28;20104;-60
2022/10/26 04:35:16;;;;;;;8.05;3.92;;;10.80;99.90;;;;;;5013341;28;20423;-62
2022/10/26 04:37:42;;;;;;;7.60;3.90;;;10.80;99.90;;;;;;5013052;28;20030;-58
2022/10/26 04:40:08;;;;;;;7.32;4.07;;;10.80;99.90;;;;;;5013638;28;20022;-55
2022/10/26 04:42:43;;;;;;;8.52;4.25;;;10.80;99.90;;;;;;5012943;28;20462;-58
2022/10/26 04:45:10;;;;;;;9.32;4.63;;;10.70;99.90;;;;;;5012697;28;20072;-54
2022/10/26 04:47:36;;;;;;;8.85;4.25;;;10.70;99.90;;;;;;5012776;28;20109;-56
2022/10/26 04:50:02;;;;;;;8.95;4.55;;;10.60;99.90;;;;;;5028599;28;20109;-60
2022/10/26 04:52:27;;;;;;;8.25;4.88;;;10.60;99.90;;;;;;5012613;28;20504;-58
2022/10/26 04:54:53;;;;;;;8.82;4.50;;;10.40;99.90;;;;;;5013233;28;20102;-58
2022/10/26 04:57:18;;;;;;;7.75;4.20;;;10.40;99.90;;;;;;5012875;28;20081;-57
2022/10/26 04:59:44;;;;;;;9.05;3.88;;;10.30;99.90;;;;;;5012936;28;20068;-57
2022/10/26 05:02:09;;;;;;;8.30;4.05;;;10.30;99.90;;;;;;5025317;28;20045;-61
2022/10/26 05:04:35;;;;;;;6.97;3.88;;;10.20;99.90;;;;;;5030856;28;20022;-56
2022/10/26 05:07:00;;;;;;;7.05;4.07;;;10.20;99.90;;;;;;5029994;28;20087;-59
2022/10/26 05:09:26;;;;;;;6.38;3.67;;;10.10;99.90;;;;;;5032308;28;20040;-56
2022/10/26 05:11:51;;;;;;;6.47;3.33;;;10.10;99.90;;;;;;5031370;28;20076;-58
2022/10/26 05:14:17;;;;;;;7.25;4.03;;;10.00;99.90;;;;;;5031200;28;20021;-56
2022/10/26 05:16:43;;;;;;;9.02;4.45;;;10.00;99.90;;;;;;5032676;28;20021;-60
2022/10/26 05:19:09;;;;;;;8.13;3.83;;;9.90;99.90;;;;;;5032328;28;20021;-59
2022/10/26 05:21:35;;;;;;;6.93;3.58;;;9.90;99.90;;;;;;5031876;28;20022;-55
2022/10/26 05:24:00;;;;;;;8.88;4.30;;;9.80;99.90;;;;;;5032352;28;20075;-57
2022/10/26 05:26:27;;;;;;;8.95;3.75;;;9.80;99.90;;;;;;5031600;28;20025;-59
2022/10/26 05:28:52;;;;;;;8.27;4.20;;;9.80;99.90;;;;;;5032355;28;20049;-58
2022/10/26 05:31:19;;;;;;;6.40;3.45;;;9.80;99.90;;;;;;5032329;28;20115;-60
2022/10/26 05:33:49;;;;;;;9.18;3.78;;;9.80;99.90;;;;;;5031779;28;20480;-58
2022/10/26 05:36:15;;;;;;;6.18;3.70;;;9.80;99.90;;;;;;5030335;28;20025;-56
2022/10/26 05:38:41;;;;;;;8.73;3.80;;;9.80;99.90;;;;;;5031878;28;20172;-55
2022/10/26 05:41:07;;;;;;;9.27;4.35;;;9.90;99.90;;;;;;5031385;28;20104;-54
2022/10/26 05:43:32;;;;;;;7.22;4.30;;;9.90;99.90;;;;;;5031656;28;20106;-55
2022/10/26 05:45:58;;;;;;;7.68;3.63;;;10.00;99.90;;;;;;5031456;28;20028;-58
2022/10/26 05:48:23;;;;;;;7.22;3.75;;;10.00;99.90;;;;;;5031417;28;20573;-57
2022/10/26 05:50:49;;;;;;;6.38;3.63;;;10.10;99.90;;;;;;5032083;28;20025;-58
2022/10/26 05:53:14;;;;;;;6.78;3.63;;;10.10;99.90;;;;;;5031855;28;20505;-59
2022/10/26 05:55:40;;;;;;;6.95;3.67;;;10.10;99.90;;;;;;5031626;28;20029;-58
2022/10/26 05:58:11;;;;;;;6.93;4.28;;;10.20;99.90;;;;;;5031652;28;20022;-57
2022/10/26 06:00:53;;;;;;;7.22;3.85;;;10.20;99.90;;;;;;5030934;28;20080;-57
2022/10/26 06:03:31;;;;;;;7.85;4.00;;;10.30;99.90;;;;;;5037059;28;20559;-57
2022/10/26 06:05:58;;;;;;;6.47;3.83;;;10.30;99.90;;;;;;5033424;28;20029;-55
2022/10/26 06:08:26;;;;;;;8.10;3.63;;;10.30;99.90;;;;;;5031639;28;20280;-59
2022/10/26 06:10:53;;;;;;;7.72;4.20;;;10.30;99.90;;;;;;5030917;28;20017;-58
2022/10/26 06:13:19;;;;;;;10.57;5.22;;;10.30;99.90;;;;;;5031438;28;20075;-59
2022/10/26 06:16:05;;;;;;;9.00;4.65;;;10.40;99.90;;;;;;5031304;28;20017;-59
2022/10/26 06:19:00;;;;;;;9.50;4.90;;;10.40;99.90;;;;;;5029821;28;20033;-65
2022/10/26 06:21:48;;;;;;;7.47;3.85;;;10.40;99.90;;;;;;5022238;28;20033;-55
2022/10/26 06:24:25;;;;;;;8.18;4.20;;;10.40;99.90;;;;;;5030700;28;20378;-60
2022/10/26 06:27:03;;;;;;;6.80;3.63;;;10.40;99.90;;;;;;5031838;28;20037;-66
2022/10/26 06:30:02;;;;;;;7.45;4.05;;;10.40;99.90;;;;;;5031103;28;20030;-62
2022/10/26 06:32:28;;;;;;;6.60;3.42;;;10.50;99.90;;;;;;5030863;28;20375;-61
2022/10/26 06:35:14;;;;;;;9.52;3.47;;;10.50;99.90;;;;;;5031183;28;20568;-59
2022/10/26 06:37:43;;;;;;;6.05;3.53;;;10.50;99.90;;;;;;5030449;28;20072;-57
2022/10/26 06:40:14;;;;;;;6.95;3.80;;;10.60;99.90;;;;;;5029865;28;20029;-59
2022/10/26 06:42:40;;;;;;;8.68;3.78;;;10.60;99.90;;;;;;5031194;28;20529;-58
2022/10/26 06:45:06;;;;;;;9.13;3.78;;;10.60;99.90;;;;;;5030567;28;20136;-53
2022/10/26 06:47:46;;;;;;;7.47;3.90;;;10.60;99.90;;;;;;5030512;28;20037;-57
2022/10/26 06:50:28;;;;;;;6.38;3.05;;;10.60;99.90;;;;;;5030855;28;20029;-54
2022/10/26 06:53:20;;;;;;;6.85;3.75;;;10.60;99.90;;;;;;5030361;28;20052;-59
2022/10/26 06:55:49;;;;;;;9.18;4.20;;;10.60;99.90;;;;;;5031114;28;20373;-61
2022/10/26 06:58:19;;;;;;;8.65;4.43;;;10.70;99.90;;;;;;5029821;28;20075;-59
2022/10/26 07:00:47;;;;;;;7.53;4.30;;;10.80;99.90;;;;;;5031018;28;20565;-58
2022/10/26 07:03:13;;;;;;;6.47;3.65;;;10.80;99.90;;;;;;5030708;28;20307;-59
2022/10/26 07:05:39;;;;;;;7.05;4.40;;;10.90;99.90;;;;;;5030366;28;20053;-56
2022/10/26 07:08:05;;;;;;;9.32;4.60;;;11.00;99.90;;;;;;5030653;28;20440;-56
2022/10/26 07:10:31;;;;;;;8.93;4.47;;;11.00;99.90;;;;;;5030635;28;20025;-52
2022/10/26 07:12:56;;;;;;;9.45;4.55;;;11.00;99.90;;;;;;5029552;28;20429;-57
2022/10/26 07:15:22;;;;;;;6.90;3.90;;;11.10;99.90;;;;;;5029432;28;20031;-60
2022/10/26 07:17:49;;;;;;;8.18;4.50;;;11.10;99.90;;;;;;5030160;28;20359;-67
2022/10/26 07:20:17;;;;;;;5.60;3.28;;;11.10;99.90;;;;;;5029651;28;20022;-61
2022/10/26 07:22:43;;;;;;;7.75;3.67;;;11.20;99.90;;;;;;5031032;28;20474;-62
2022/10/26 07:25:11;;;;;;;8.23;3.55;;;11.20;99.90;;;;;;5031474;28;20027;-65
2022/10/26 07:27:36;;;;;;;5.85;3.30;;;11.20;99.90;;;;;;5029510;28;20033;-61
2022/10/26 07:30:03;;;;;;;6.38;3.30;;;11.10;99.90;;;;;;5029876;28;20022;-59
2022/10/26 07:32:29;;;;;;;8.57;3.40;;;11.10;99.90;;;;;;5028912;28;20026;-56
2022/10/26 07:34:55;;;;;;;6.53;3.40;;;11.10;99.90;;;;;;5027901;28;20022;-57
2022/10/26 07:37:20;;;;;;;7.88;3.90;;;11.20;99.90;;;;;;5029464;28;20493;-57
2022/10/26 07:39:46;;;;;;;8.88;3.83;;;11.20;99.90;;;;;;5029472;28;20056;-57
2022/10/26 07:42:11;;;;;;;8.32;3.47;;;11.30;99.90;;;;;;5028350;28;20549;-58
2022/10/26 07:44:37;;;;;;;7.40;3.85;;;11.30;99.90;;;;;;5023785;28;20494;-57
2022/10/26 07:47:02;;;;;;;8.30;3.63;;;11.40;99.90;;;;;;5028400;28;20044;-56
2022/10/26 07:49:28;;;;;;;7.00;4.20;;;11.50;99.90;;;;;;5029577;28;20067;-59
2022/10/26 07:51:54;;;;;;;6.20;3.83;;;11.50;99.90;;;;;;5029212;28;20060;-58
2022/10/26 07:54:19;;;;;;;5.43;3.40;;;11.50;99.90;;;;;;5029458;28;20078;-57
2022/10/26 07:56:48;;;;;;;8.23;3.65;;;11.60;99.90;;;;;;5016418;28;20066;-59
2022/10/26 07:59:13;;;;;;;8.25;4.82;;;11.60;99.90;;;;;;5023992;28;20017;-55
2022/10/26 08:01:39;;;;;;;9.55;4.88;;;11.60;99.90;;;;;;5027991;28;20087;-54
2022/10/26 08:04:05;;;;;;;9.63;4.65;;;11.70;99.90;;;;;;5028693;28;20040;-52
2022/10/26 08:06:30;;;;;;;8.10;4.28;;;11.70;99.90;;;;;;5030109;28;20512;-59
2022/10/26 08:08:56;;;;;;;9.07;4.32;;;11.80;99.90;;;;;;5039536;28;20076;-61
2022/10/26 08:11:21;;;;;;;10.00;4.47;;;11.90;99.90;;;;;;5037487;28;20033;-55
2022/10/26 08:13:50;;;;;;;8.95;4.80;;;11.90;99.90;;;;;;5028170;28;20040;-66
2022/10/26 08:16:16;;;;;;;6.65;3.75;;;11.90;99.90;;;;;;5029764;28;20359;-61
2022/10/26 08:18:42;;;;;;;7.68;4.28;;;12.00;99.90;;;;;;5027590;28;20025;-63
2022/10/26 08:21:13;;;;;;;6.70;3.60;;;12.10;99.90;;;;;;5025760;28;20056;-57
2022/10/26 08:23:39;;;;;;;7.45;3.92;;;12.10;99.90;;;;;;5044680;28;20022;-54
2022/10/26 08:26:05;;;;;;;7.25;4.43;;;12.20;99.90;;;;;;5030576;28;20064;-59
2022/10/26 08:28:31;;;;;;;6.68;3.60;;;12.30;99.90;;;;;;5030298;28;20055;-64
2022/10/26 08:30:58;;;;;;;7.43;4.07;;;12.40;99.90;;;;;;5032582;28;20109;-56
2022/10/26 08:33:24;;;;;;;7.93;3.97;;;12.40;99.90;;;;;;5032756;28;20026;-61
2022/10/26 08:36:01;;;;;;;7.43;3.97;;;12.50;99.90;;;;;;5034736;28;20026;-59
2022/10/26 08:38:27;;;;;;;7.03;4.00;;;12.60;99.90;;;;;;5025484;28;20083;-66
2022/10/26 08:40:55;;;;;;;8.25;4.15;;;12.70;99.90;;;;;;5041838;28;20021;-56
2022/10/26 08:43:21;;;;;;;7.20;4.00;;;12.80;99.90;;;;;;5051361;28;20056;-63
2022/10/26 08:45:56;;;;;;;8.63;4.47;;;12.90;99.90;;;;;;5031199;28;20155;-60
2022/10/26 08:48:28;;;;;;;8.80;4.50;;;12.90;99.90;;;;;;5032381;28;20052;-59
2022/10/26 08:50:58;;;;;;;7.43;3.95;;;13.00;99.90;;;;;;5031870;28;20096;-63
2022/10/26 08:53:36;;;;;;;8.60;4.63;;;13.10;99.90;;;;;;5033331;28;20029;-60
2022/10/26 08:56:16;;;;;;;11.23;5.78;;;13.20;99.90;;;;;;5032647;28;20184;-56
2022/10/26 08:58:57;;;;;;;10.10;5.20;;;13.30;99.90;;;;;;5012320;28;20033;-61
2022/10/26 09:01:23;;;;;;;;;;;13.30;99.90;;;;;;5017564;28;20044;-63
2022/10/26 09:03:49;;;;;;;10.27;5.68;;;13.40;99.90;;;;;;5031211;28;19909;-59
2022/10/26 09:06:41;;;;;;;11.88;6.53;;;13.50;99.90;;;;;;5034142;28;20040;-60
2022/10/26 09:09:30;;;;;;;7.03;3.95;;;13.60;99.90;;;;;;5033497;28;20490;-59
2022/10/26 09:12:02;;;;;;;7.60;3.85;;;13.70;99.90;;;;;;5013274;28;20029;-60
2022/10/26 09:14:39;;;;;;;5.45;3.38;;;13.90;99.90;;;;;;5028320;28;20070;-57
2022/10/26 09:17:10;;;;;;;7.63;3.83;;;14.00;99.90;;;;;;5012903;28;20036;-60
2022/10/26 09:20:00;;;;;;;6.32;3.78;;;14.10;99.90;;;;;;5012374;28;20041;-58
2022/10/26 09:22:29;;;;;;;6.88;3.50;;;14.20;99.90;;;;;;5020703;28;20049;-56
2022/10/26 09:24:56;;;;;;;5.78;3.40;;;14.30;99.90;;;;;;5029699;28;20021;-59
2022/10/26 09:27:31;;;;;;;7.82;4.47;;;14.30;99.90;;;;;;5031578;28;20033;-61
2022/10/26 09:30:02;;;;;;;9.48;4.07;;;14.40;99.90;;;;;;5031740;28;20105;-58
2022/10/26 09:32:37;;;;;;;6.82;3.40;;;14.50;99.90;;;;;;5030567;28;20029;-58
2022/10/26 09:35:12;;;;;;;8.13;3.70;;;14.60;99.90;;;;;;5032780;28;20033;-58
2022/10/26 09:37:46;;;;;;;6.93;3.42;;;14.60;99.90;;;;;;5027949;28;20112;-61
2022/10/26 09:40:30;;;;;;;7.05;2.80;;;14.70;99.90;;;;;;5029928;28;20399;-61
2022/10/26 09:43:19;;;;;;;6.10;3.78;;;14.80;99.90;;;;;;5027932;28;20030;-56
2022/10/26 09:45:49;;;;;;;6.90;3.75;;;14.90;99.90;;;;;;5031246;28;20545;-60
2022/10/26 09:48:30;;;;;;;8.00;3.50;;;14.90;99.90;;;;;;5028093;28;20033;-60
2022/10/26 09:50:56;;;;;;;5.40;3.50;;;15.00;99.90;;;;;;5032045;28;20029;-57
2022/10/26 09:53:22;;;;;;;11.18;4.28;;;15.10;99.90;;;;;;5031884;28;20260;-59
2022/10/26 09:55:53;;;;;;;9.07;4.05;;;15.20;99.90;;;;;;5029375;28;20025;-60
2022/10/26 09:58:33;;;;;;;5.50;3.70;;;15.30;99.90;;;;;;5032542;28;20021;-58
2022/10/26 10:00:59;;;;;;;10.65;4.10;;;15.50;99.90;;;;;;5031440;28;20017;-60
2022/10/26 10:03:30;;;;;;;6.70;3.20;;;15.50;99.90;;;;;;5033486;28;20017;-59
2022/10/26 10:06:15;;;;;;;11.48;4.32;;;15.60;99.90;;;;;;5031472;28;20040;-57
2022/10/26 10:08:41;;;;;;;6.65;3.42;;;15.80;99.90;;;;;;5031514;28;20104;-60
2022/10/26 10:11:11;;;;;;;5.30;2.92;;;15.90;99.90;;;;;;5031911;28;20029;-58
2022/10/26 10:13:42;;;;;;;7.07;3.20;;;16.10;99.90;;;;;;5029680;28;20091;-59
2022/10/26 10:16:21;;;;;;;10.27;3.40;;;16.20;99.90;;;;;;5031547;28;20535;-60
2022/10/26 10:18:56;;;;;;;8.43;3.95;;;16.30;99.90;;;;;;5030481;28;20029;-62
2022/10/26 10:21:42;;;;;;;5.97;3.15;;;16.40;99.90;;;;;;5030251;28;20037;-65
2022/10/26 10:24:27;;;;;;;10.40;3.53;;;16.50;99.90;;;;;;5018358;28;20029;-59
2022/10/26 10:27:05;;;;;;;7.28;3.42;;;16.60;99.90;;;;;;5030763;28;20556;-60
2022/10/26 10:29:33;;;;;;;5.75;3.22;;;16.60;99.90;;;;;;5031343;28;20035;-59
2022/10/26 10:32:01;;;;;;;6.60;3.50;;;16.60;99.90;;;;;;5030873;28;20087;-57
2022/10/26 10:34:30;;;;;;;8.30;3.03;;;16.70;99.90;;;;;;5029527;28;20219;-62
2022/10/26 10:36:58;;;;;;;5.80;3.70;;;16.60;99.90;;;;;;5030039;28;20031;-58
2022/10/26 10:39:41;;;;;;;5.43;3.25;;;16.60;99.90;;;;;;5029109;28;20071;-65
2022/10/26 10:42:19;;;;;;;5.75;3.55;;;16.60;99.90;;;;;;5020912;28;20482;-63
2022/10/26 10:44:49;;;;;;;6.55;3.13;;;16.60;99.90;;;;;;5029253;28;20049;-57
2022/10/26 10:47:22;;;;;;;6.63;3.65;;;16.60;99.90;;;;;;5030421;28;20029;-58
2022/10/26 10:49:57;;;;;;;8.75;3.15;;;16.60;99.90;;;;;;5029871;28;20448;-60
2022/10/26 10:52:34;;;;;;;7.47;3.30;;;16.70;99.90;;;;;;5028551;28;20595;-57
2022/10/26 10:55:12;;;;;;;8.38;3.63;;;16.70;99.90;;;;;;5031140;28;20025;-58
2022/10/26 10:57:43;;;;;;;7.40;3.75;;;16.80;99.90;;;;;;5028578;28;20038;-57
2022/10/26 11:00:10;;;;;;;9.75;3.97;;;16.80;99.90;;;;;;5030918;28;20127;-55
2022/10/26 11:02:42;;;;;;;8.63;3.35;;;16.80;99.90;;;;;;5031522;28;20049;-60
2022/10/26 11:05:25;;;;;;;8.30;3.28;;;16.90;99.90;;;;;;5029431;28;20378;-58
2022/10/26 11:08:07;;;;;;;8.68;4.07;;;17.00;99.90;;;;;;5025756;28;20029;-64
2022/10/26 11:10:41;;;;;;;7.18;3.70;;;17.00;99.90;;;;;;5029110;28;20500;-56
2022/10/26 11:13:34;;;;;;;6.60;3.65;;;17.10;99.90;;;;;;5024142;28;20029;-57
2022/10/26 11:16:04;;;;;;;9.73;4.13;;;17.10;99.90;;;;;;5028123;28;20076;-59
2022/10/26 11:18:44;;;;;;;8.45;3.95;;;17.20;99.90;;;;;;5025332;28;20029;-60
2022/10/26 11:21:24;;;;;;;6.68;3.65;;;17.10;99.90;;;;;;5029422;28;20021;-62
2022/10/26 11:24:11;;;;;;;7.73;3.97;;;17.20;99.90;;;;;;5027398;28;20453;-58
2022/10/26 11:26:47;;;;;;;7.53;3.72;;;17.20;99.90;;;;;;5027884;28;20063;-60
2022/10/26 11:29:42;;;;;;;6.70;3.63;;;17.20;99.90;;;;;;5029203;28;20421;-58
2022/10/26 11:32:21;;;;;;;8.85;3.50;;;17.20;99.90;;;;;;5033214;28;20033;-61
2022/10/26 11:34:57;;;;;;;6.25;3.05;;;17.20;99.90;;;;;;5050893;28;20124;-55
2022/10/26 11:37:51;;;;;;;7.25;3.58;;;17.30;99.90;;;;;;5039125;28;20076;-60
2022/10/26 11:40:52;;;;;;;7.20;3.22;;;17.50;99.90;;;;;;5044158;28;20049;-57
2022/10/26 11:43:46;;;;;;;9.68;3.50;;;17.60;99.90;;;;;;5026838;28;20477;-58
2022/10/26 11:46:27;;;;;;;8.68;3.00;;;17.80;99.90;;;;;;5029231;28;20053;-59
2022/10/26 11:49:18;;;;;;;5.32;2.90;;;17.90;99.90;;;;;;5029813;28;20037;-56
2022/10/26 11:51:54;;;;;;;5.13;2.60;;;17.90;99.90;;;;;;5029448;28;20025;-57
2022/10/26 11:54:33;;;;;;;5.03;2.65;;;17.90;99.90;;;;;;5031116;28;20021;-59
2022/10/26 11:57:00;;;;;;;8.60;3.38;;;17.90;99.90;;;;;;5029616;28;20117;-58
2022/10/26 11:59:30;;;;;;;8.45;2.83;;;17.90;99.90;;;;;;5026772;28;20033;-60
2022/10/26 12:02:04;;;;;;;5.90;2.50;;;17.90;99.90;;;;;;5017695;28;20026;-58
2022/10/26 12:04:32;;;;;;;7.85;2.17;;;18.00;99.90;;;;;;5029907;28;20029;-60
2022/10/26 12:07:01;;;;;;;6.80;2.60;;;18.00;99.90;;;;;;5033032;28;20085;-59
2022/10/26 12:09:31;;;;;;;3.65;2.22;;;18.10;99.90;;;;;;5032267;28;20033;-61
2022/10/26 12:12:22;;;;;;;6.28;2.95;;;18.30;99.90;;;;;;5033991;28;20517;-59
2022/10/26 12:15:26;;;;;;;4.63;2.35;;;18.40;99.90;;;;;;5034253;28;20025;-59
2022/10/26 12:18:00;;;;;;;4.78;2.50;;;18.50;99.90;;;;;;4999398;28;20513;-58
2022/10/26 12:20:35;;;;;;;5.80;2.78;;;18.60;99.90;;;;;;5032836;28;20064;-58
2022/10/26 12:23:03;;;;;;;5.13;3.03;;;18.80;99.90;;;;;;5036434;28;20029;-60
2022/10/26 12:25:28;;;;;;;4.30;2.42;;;18.90;99.80;;;;;;5033875;28;20473;-61
2022/10/26 12:27:57;;;;;;;6.82;2.72;;;18.90;99.60;;;;;;5033019;28;20071;-66
2022/10/26 12:30:31;;;;;;;6.82;2.60;;;19.00;99.40;;;;;;5032312;28;20033;-61
2022/10/26 12:32:59;;;;;;;8.65;2.45;;;19.10;99.30;;;;;;5034450;28;20409;-59
2022/10/26 12:35:38;;;;;;;4.63;2.70;;;19.20;99.30;;;;;;5034400;28;20029;-59
2022/10/26 12:38:22;;;;;;;3.78;2.17;;;19.30;99.10;;;;;;5034546;28;20025;-60
2022/10/26 12:41:07;;;;;;;5.30;2.80;;;19.20;98.70;;;;;;5034595;28;20057;-61
2022/10/26 12:43:38;;;;;;;7.00;2.97;;;19.10;99.00;;;;;;5033920;28;20022;-62
2022/10/26 12:46:13;;;;;;;6.07;2.75;;;18.90;98.90;;;;;;5034949;28;20057;-60
2022/10/26 12:48:49;;;;;;;4.90;3.10;;;18.80;99.00;;;;;;5034335;28;20037;-59
2022/10/26 12:51:18;;;;;;;5.75;2.63;;;18.70;99.30;;;;;;5032185;28;20044;-63
2022/10/26 12:54:00;;;;;;;4.85;2.60;;;18.60;99.40;;;;;;5034245;28;20036;-64
2022/10/26 12:56:49;;;;;;;5.38;2.53;;;18.50;99.50;;;;;;5033112;28;20476;-60
2022/10/26 12:59:33;;;;;;;5.15;2.97;;;18.50;99.70;;;;;;5034403;28;20498;-60
2022/10/26 13:02:15;;;;;;;5.93;2.72;;;18.50;99.80;;;;;;5034328;28;20381;-61
2022/10/26 13:05:03;;;;;;;4.28;2.60;;;18.50;99.90;;;;;;5033561;28;20023;-63
2022/10/26 13:07:35;;;;;;;5.75;2.80;;;18.50;99.80;;;;;;5032862;28;20045;-64
2022/10/26 13:10:23;;;;;;;6.95;2.97;;;18.50;99.90;;;;;;5034361;28;20017;-60
2022/10/26 13:12:53;;;;;;;5.72;2.65;;;18.50;99.90;;;;;;5034121;28;20079;-59